Time;durP1;ratioP1;P1;durP2;ratioP2;P2;SDS_P1;SDS_P2;PMS_P1;PMS_P2;Temp;Humidity;BMP_temperature;BMP_pressure;BME280_temperature;BME280_humidity;BME280_pressure;Samples;Min_cycle;Max_cycle;Signal;HPM_P1;HPM_P2
2023/03/23 00:02:27;;;;;;;5.60;4.78;;;;;;;10.55;100.00;100232.53;6158885;23;20408;-74
2023/03/23 00:04:53;;;;;;;5.57;4.45;;;;;;;10.55;100.00;100229.13;6132961;23;20091;-73
2023/03/23 00:07:21;;;;;;;8.38;4.00;;;;;;;10.56;100.00;100218.03;6133061;23;20341;-73
2023/03/23 00:09:53;;;;;;;6.63;4.25;;;;;;;10.57;100.00;100203.53;6133016;23;20029;-74
2023/03/23 00:12:33;;;;;;;5.82;4.35;;;;;;;10.58;100.00;100190.97;6159337;23;20025;-73
2023/03/23 00:15:12;;;;;;;7.57;4.25;;;;;;;10.56;100.00;100180.78;6159523;23;20024;-73
2023/03/23 00:17:40;;;;;;;7.05;4.28;;;;;;;10.57;100.00;100208.13;6132922;23;20014;-73
2023/03/23 00:20:06;;;;;;;7.28;4.00;;;;;;;10.57;100.00;100206.22;6157638;23;20026;-73
2023/03/23 00:22:37;;;;;;;7.70;4.38;;;;;;;10.57;100.00;100202.81;6133124;23;20018;-74
2023/03/23 00:25:08;;;;;;;6.82;4.45;;;;;;;10.57;100.00;100210.78;6157523;23;20516;-74
2023/03/23 00:27:34;;;;;;;5.28;3.83;;;;;;;10.57;100.00;100210.78;6133480;23;20014;-73
2023/03/23 00:30:00;;;;;;;3.80;3.47;;;;;;;10.56;100.00;100202.06;6107857;23;20018;-74
2023/03/23 00:32:29;;;;;;;4.32;3.90;;;;;;;10.57;100.00;100192.91;6108660;23;20018;-74
2023/03/23 00:34:58;;;;;;;7.18;4.00;;;;;;;10.57;100.00;100192.91;6107895;23;20022;-73
2023/03/23 00:37:24;;;;;;;3.63;3.30;;;;;;;10.57;100.00;100189.50;6157293;23;20386;-74
2023/03/23 00:39:51;;;;;;;4.97;3.63;;;;;;;10.58;100.00;100190.97;6132986;23;20483;-74
2023/03/23 00:42:17;;;;;;;4.78;3.80;;;;;;;10.61;100.00;100187.41;6133044;23;20048;-74
2023/03/23 00:44:43;;;;;;;5.93;3.33;;;;;;;10.63;100.00;100185.03;6132839;23;20018;-74
2023/03/23 00:47:10;;;;;;;4.20;3.80;;;;;;;10.63;100.00;100185.03;6156937;23;20420;-74
2023/03/23 00:49:37;;;;;;;4.88;3.22;;;;;;;10.63;100.00;100180.44;6108764;23;20026;-74
2023/03/23 00:52:05;;;;;;;4.15;3.50;;;;;;;10.64;100.00;100171.28;6133099;23;20018;-74
2023/03/23 00:54:31;;;;;;;4.13;3.40;;;;;;;10.63;100.00;100177.78;6157520;23;20021;-74
2023/03/23 00:56:57;;;;;;;3.85;3.50;;;;;;;10.62;100.00;100168.34;6108287;23;20025;-73
2023/03/23 00:59:23;;;;;;;3.85;3.17;;;;;;;10.63;100.00;100155.75;6132257;23;20134;-74
2023/03/23 01:01:50;;;;;;;6.22;3.30;;;;;;;10.65;100.00;100151.47;6132897;23;20120;-74
2023/03/23 01:04:16;;;;;;;5.20;3.45;;;;;;;10.66;100.00;100160.19;6132576;23;20412;-74
2023/03/23 01:06:44;;;;;;;6.20;3.45;;;;;;;10.65;99.82;100156.03;6108426;23;20021;-74
2023/03/23 01:09:14;;;;;;;3.53;3.17;;;;;;;10.66;100.00;100157.50;6132822;23;20487;-74
2023/03/23 01:11:41;;;;;;;6.55;3.35;;;;;;;10.66;100.00;100152.19;6133242;23;20026;-74
2023/03/23 01:14:06;;;;;;;5.50;3.10;;;;;;;10.66;100.00;100152.19;6107788;23;20022;-74
2023/03/23 01:16:32;;;;;;;2.92;2.72;;;;;;;10.68;99.46;100137.25;6132717;23;20021;-74
2023/03/23 01:18:57;;;;;;;6.97;3.33;;;;;;;10.69;99.39;100148.63;6132412;23;20412;-74
2023/03/23 01:21:24;;;;;;;3.55;3.20;;;;;;;10.72;99.32;100154.97;6132859;23;20108;-74
2023/03/23 01:23:50;;;;;;;4.50;3.55;;;;;;;10.73;99.03;100151.13;6133069;23;20092;-74
2023/03/23 01:26:20;;;;;;;3.67;3.22;;;;;;;10.73;98.70;100140.47;6157399;23;20448;-74
2023/03/23 01:28:46;;;;;;;4.57;3.33;;;;;;;10.74;98.89;100123.31;6132380;23;20445;-74
2023/03/23 01:31:15;;;;;;;5.82;2.95;;;;;;;10.73;99.03;100121.84;6108184;23;20021;-74
2023/03/23 01:33:41;;;;;;;5.95;2.95;;;;;;;10.72;98.71;100137.06;6108317;23;20031;-74
2023/03/23 01:36:12;;;;;;;3.50;3.20;;;;;;;10.72;98.51;100121.09;6132257;23;20054;-74
2023/03/23 01:38:39;;;;;;;3.88;3.30;;;;;;;10.71;98.90;100119.63;6108752;23;20026;-73
2023/03/23 01:41:05;;;;;;;2.90;2.67;;;;;;;10.72;98.75;100121.09;6108303;23;20110;-74
2023/03/23 01:43:31;;;;;;;4.05;2.78;;;;;;;10.72;98.14;100120.38;6132115;23;20448;-74
2023/03/23 01:45:57;;;;;;;5.72;2.97;;;;;;;10.73;97.82;100116.50;6107350;23;20125;-74
2023/03/23 01:48:31;;;;;;;2.97;2.75;;;;;;;10.73;97.43;100113.84;6107353;23;20530;-74
2023/03/23 01:51:04;;;;;;;5.03;3.55;;;;;;;10.73;97.47;100119.91;6107807;23;20018;-74
2023/03/23 01:53:37;;;;;;;3.28;2.95;;;;;;;10.74;97.46;100110.00;6108513;23;20022;-74
2023/03/23 01:56:03;;;;;;;3.58;3.20;;;;;;;10.76;97.15;100116.34;6107970;23;20022;-74
2023/03/23 01:58:32;;;;;;;3.78;2.97;;;;;;;10.77;97.33;100111.75;6107389;23;20108;-74
2023/03/23 02:01:02;;;;;;;5.07;2.70;;;;;;;10.77;97.04;100117.06;6107572;23;20089;-74
2023/03/23 02:03:31;;;;;;;2.95;2.72;;;;;;;10.77;97.07;100109.09;6107820;23;20467;-74
2023/03/23 02:06:02;;;;;;;3.33;3.00;;;;;;;10.75;97.06;100101.56;6083363;23;20014;-74
2023/03/23 02:08:49;;;;;;;5.50;3.33;;;;;;;10.75;97.27;100114.88;6111409;23;20026;-74
2023/03/23 02:11:20;;;;;;;3.00;2.80;;;;;;;10.75;97.34;100106.88;6107158;23;20042;-74
2023/03/23 02:13:46;;;;;;;3.85;3.40;;;;;;;10.75;97.17;100104.22;6157547;23;20021;-74
2023/03/23 02:16:27;;;;;;;4.93;3.17;;;;;;;10.75;97.50;100106.88;6107564;23;20022;-74
2023/03/23 02:19:07;;;;;;;5.30;3.38;;;;;;;10.78;96.96;100111.28;6158573;23;20461;-74
2023/03/23 02:21:51;;;;;;;4.22;3.10;;;;;;;10.79;97.02;100107.44;6132176;23;20022;-74
2023/03/23 02:24:38;;;;;;;2.95;2.75;;;;;;;10.77;97.69;100104.50;6107577;23;20081;-74
2023/03/23 02:27:16;;;;;;;4.03;3.20;;;;;;;10.77;97.46;100098.44;6107154;23;20018;-74
2023/03/23 02:30:00;;;;;;;5.18;3.15;;;;;;;10.77;97.54;100091.19;6084378;23;20022;-74
2023/03/23 02:33:08;;;;;;;5.28;3.35;;;;;;;10.77;97.57;100101.84;6132185;23;20101;-74
2023/03/23 02:36:13;;;;;;;7.15;3.13;;;;;;;10.79;97.35;100107.44;6107996;23;20018;-74
2023/03/23 02:38:50;;;;;;;6.38;3.50;;;;;;;10.80;97.57;100103.56;6132154;23;20033;-74
2023/03/23 02:41:21;;;;;;;4.63;3.38;;;;;;;10.80;97.56;100098.25;6106719;23;20077;-75
2023/03/23 02:43:49;;;;;;;3.50;3.20;;;;;;;10.81;97.26;100094.38;6083739;23;20024;-75
2023/03/23 02:46:15;;;;;;;5.55;3.45;;;;;;;10.83;97.33;100102.66;6107475;23;20257;-75
2023/03/23 02:48:44;;;;;;;4.20;3.28;;;;;;;10.84;97.22;100095.41;6151939;23;20464;-75
2023/03/23 02:51:11;;;;;;;3.42;3.13;;;;;;;10.86;97.30;100099.09;6102804;23;20457;-75
2023/03/23 02:53:41;;;;;;;3.85;3.22;;;;;;;10.88;96.71;100093.31;6127574;23;20086;-75
2023/03/23 02:56:11;;;;;;;6.03;3.70;;;;;;;10.89;96.69;100100.84;6126872;23;20358;-75
2023/03/23 02:58:37;;;;;;;4.68;3.65;;;;;;;10.89;96.74;100100.84;6104075;23;20097;-74
2023/03/23 03:01:36;;;;;;;4.78;3.35;;;;;;;10.90;96.73;100099.66;6104081;23;20595;-75
2023/03/23 03:04:23;;;;;;;4.07;3.05;;;;;;;10.93;96.18;100088.09;6103801;23;20416;-76
2023/03/23 03:06:55;;;;;;;5.30;3.50;;;;;;;10.95;96.21;100090.28;6103899;23;20045;-75
2023/03/23 03:09:33;;;;;;;5.00;3.60;;;;;;;10.96;95.95;100089.09;6127873;23;20010;-75
2023/03/23 03:12:08;;;;;;;6.63;3.60;;;;;;;10.95;95.91;100090.28;6128597;23;20023;-75
2023/03/23 03:14:41;;;;;;;4.32;3.33;;;;;;;10.95;95.87;100084.97;6128945;23;20014;-75
2023/03/23 03:17:24;;;;;;;6.35;3.60;;;;;;;10.98;95.49;100092.78;6104088;23;20018;-75
2023/03/23 03:19:56;;;;;;;3.63;3.15;;;;;;;10.99;94.87;100096.91;6103753;23;20019;-75
2023/03/23 03:22:23;;;;;;;5.90;2.88;;;;;;;10.99;94.99;100088.91;6103886;23;20027;-75
2023/03/23 03:24:50;;;;;;;6.70;3.28;;;;;;;11.00;95.03;100090.41;6103277;23;20030;-76
2023/03/23 03:27:20;;;;;;;3.72;2.70;;;;;;;11.02;94.60;100074.69;6128304;23;20405;-75
2023/03/23 03:29:56;;;;;;;5.00;2.72;;;;;;;11.02;94.35;100081.94;6104991;23;20018;-75
2023/03/23 03:32:30;;;;;;;4.65;3.08;;;;;;;11.03;94.34;100089.47;6128366;23;20022;-75
2023/03/23 03:35:00;;;;;;;4.88;2.33;;;;;;;11.06;93.82;100081.78;6104008;23;20015;-76
2023/03/23 03:37:26;;;;;;;2.42;2.33;;;;;;;11.09;93.94;100080.84;6103579;23;20027;-73
2023/03/23 03:39:52;;;;;;;3.05;2.78;;;;;;;11.08;93.99;100074.06;6102867;23;20423;-75
2023/03/23 03:42:18;;;;;;;7.90;2.72;;;;;;;11.08;93.76;100072.13;6103754;23;20042;-74
2023/03/23 03:44:43;;;;;;;3.95;2.33;;;;;;;11.07;93.31;100070.66;6103808;23;20076;-74
2023/03/23 03:47:09;;;;;;;5.28;2.53;;;;;;;11.11;93.34;100073.16;6130657;23;20015;-74
2023/03/23 03:49:35;;;;;;;3.53;2.35;;;;;;;11.12;93.42;100063.97;6133813;23;20045;-74
2023/03/23 03:52:01;;;;;;;5.38;2.50;;;;;;;11.11;93.24;100073.88;6133125;23;20168;-74
2023/03/23 03:54:36;;;;;;;2.30;2.10;;;;;;;11.10;93.02;100077.00;6110065;23;20357;-74
2023/03/23 03:57:01;;;;;;;3.08;1.92;;;;;;;11.09;93.22;100076.25;6108256;23;20017;-74
2023/03/23 03:59:50;;;;;;;3.58;2.08;;;;;;;11.10;92.87;100074.34;6137601;23;20030;-74
2023/03/23 04:02:34;;;;;;;4.40;2.33;;;;;;;11.12;92.36;100078.00;6159431;23;20026;-75
2023/03/23 04:05:03;;;;;;;2.10;1.90;;;;;;;11.14;92.32;100058.91;6159557;23;20014;-74
2023/03/23 04:07:30;;;;;;;4.05;2.45;;;;;;;11.17;92.35;100073.97;6132523;23;20018;-74
2023/03/23 04:09:56;;;;;;;2.30;2.00;;;;;;;11.18;92.11;100068.19;6108206;23;20025;-74
2023/03/23 04:12:22;;;;;;;4.47;1.92;;;;;;;11.20;91.91;100073.03;6133085;23;20026;-74
2023/03/23 04:14:57;;;;;;;3.10;2.20;;;;;;;11.20;91.72;100081.03;6135399;23;20018;-75
2023/03/23 04:17:29;;;;;;;4.05;2.13;;;;;;;11.20;91.66;100070.38;6109575;23;20102;-75
2023/03/23 04:19:59;;;;;;;4.65;2.28;;;;;;;11.20;92.07;100073.78;6108602;23;20109;-75
2023/03/23 04:22:29;;;;;;;7.03;2.10;;;;;;;11.21;91.73;100075.25;6108186;23;20444;-74
2023/03/23 04:25:02;;;;;;;4.85;2.05;;;;;;;11.24;91.61;100079.66;6132534;23;20029;-75
2023/03/23 04:27:28;;;;;;;4.35;2.10;;;;;;;11.22;91.20;100083.97;6108779;23;20048;-74
2023/03/23 04:29:58;;;;;;;5.35;2.20;;;;;;;11.21;91.39;100087.81;6108492;23;20022;-75
2023/03/23 04:32:42;;;;;;;7.13;2.00;;;;;;;11.22;90.77;100081.31;6159575;23;20026;-74
2023/03/23 04:35:12;;;;;;;3.05;1.60;;;;;;;11.22;90.34;100082.03;6108881;23;20456;-74
2023/03/23 04:37:43;;;;;;;2.60;1.70;;;;;;;11.24;90.02;100092.25;6109486;23;20025;-74
2023/03/23 04:40:14;;;;;;;4.38;1.80;;;;;;;11.26;89.31;100103.19;6132508;23;20022;-75
2023/03/23 04:42:46;;;;;;;3.30;2.05;;;;;;;11.28;89.69;100103.44;6108927;23;20022;-74
2023/03/23 04:45:24;;;;;;;6.60;1.75;;;;;;;11.30;89.05;100109.06;6110697;23;20120;-74
2023/03/23 04:47:57;;;;;;;4.05;1.83;;;;;;;11.27;89.15;100102.72;6108013;23;20134;-74
2023/03/23 04:50:32;;;;;;;2.45;1.85;;;;;;;11.26;89.29;100111.16;6132275;23;20078;-74
2023/03/23 04:53:05;;;;;;;4.47;1.92;;;;;;;11.24;89.38;100113.56;6108825;23;20429;-74
2023/03/23 04:55:36;;;;;;;4.45;1.60;;;;;;;11.22;89.19;100111.34;6108655;23;20048;-74
2023/03/23 04:58:03;;;;;;;4.45;1.55;;;;;;;11.25;88.87;100113.09;6108373;23;20018;-75
2023/03/23 05:00:37;;;;;;;4.28;1.67;;;;;;;11.21;88.89;100109.88;6110215;23;20057;-75
2023/03/23 05:03:03;;;;;;;3.20;1.52;;;;;;;11.20;89.07;100116.41;6108588;23;20101;-75
2023/03/23 05:05:31;;;;;;;5.90;1.65;;;;;;;11.20;88.66;100121.00;6132147;23;20025;-75
2023/03/23 05:08:01;;;;;;;7.82;1.73;;;;;;;11.20;89.35;100118.31;6132530;23;20029;-75
2023/03/23 05:10:30;;;;;;;5.07;1.65;;;;;;;11.19;89.36;100112.28;6108871;23;20024;-75
2023/03/23 05:13:03;;;;;;;9.18;1.88;;;;;;;11.19;89.50;100116.88;6109965;23;20917;-75
2023/03/23 05:15:28;;;;;;;7.03;1.48;;;;;;;11.19;89.34;100127.53;6108177;23;20025;-75
2023/03/23 05:17:56;;;;;;;4.93;1.48;;;;;;;11.19;89.69;100138.19;6108851;23;20025;-74
2023/03/23 05:20:24;;;;;;;4.72;1.80;;;;;;;11.17;89.81;100130.66;6107958;23;20076;-75
2023/03/23 05:22:56;;;;;;;2.60;1.65;;;;;;;11.14;90.22;100126.25;6132783;23;20077;-74
2023/03/23 05:25:27;;;;;;;7.45;1.90;;;;;;;11.12;90.59;100122.56;6132820;23;20044;-74
2023/03/23 05:28:07;;;;;;;5.78;1.65;;;;;;;11.06;91.77;100117.13;6111131;23;20018;-74
2023/03/23 05:30:53;;;;;;;4.43;1.63;;;;;;;11.03;91.64;100120.69;6132565;23;20041;-74
2023/03/23 05:33:20;;;;;;;9.43;1.77;;;;;;;11.00;91.95;100124.28;6157068;23;20457;-74
2023/03/23 05:35:52;;;;;;;6.85;1.73;;;;;;;10.97;92.33;100122.53;6108189;23;20392;-74
2023/03/23 05:38:24;;;;;;;5.38;1.70;;;;;;;10.95;92.32;100138.97;6109296;23;20033;-74
2023/03/23 05:40:52;;;;;;;8.32;2.33;;;;;;;10.93;92.79;100138.69;6107756;23;20029;-74
2023/03/23 05:43:24;;;;;;;3.90;1.83;;;;;;;10.91;93.50;100150.97;6109197;23;20014;-74
2023/03/23 05:46:24;;;;;;;4.97;1.80;;;;;;;10.85;94.06;100150.88;6050840;23;20468;-74
2023/03/23 05:48:53;;;;;;;5.97;2.03;;;;;;;10.81;95.15;100150.31;6066932;23;20020;-73
2023/03/23 05:51:22;;;;;;;6.80;1.95;;;;;;;10.75;96.26;100146.06;6067567;23;20020;-74
2023/03/23 05:53:48;;;;;;;5.63;1.52;;;;;;;10.72;96.84;100157.63;6043721;23;20023;-74
2023/03/23 05:56:15;;;;;;;4.78;1.63;;;;;;;10.65;97.75;100151.47;6068208;23;20365;-74
2023/03/23 05:59:05;;;;;;;8.70;2.30;;;;;;;10.61;98.37;100150.16;6067464;23;20023;-74
2023/03/23 06:01:33;;;;;;;7.55;2.22;;;;;;;10.58;98.97;100159.03;6067853;23;20526;-74
2023/03/23 06:03:59;;;;;;;7.28;1.83;;;;;;;10.57;99.35;100160.97;6067227;23;20039;-73
2023/03/23 06:06:38;;;;;;;6.35;1.85;;;;;;;10.55;99.83;100175.91;6022824;23;20047;-74
2023/03/23 06:09:09;;;;;;;9.57;2.03;;;;;;;10.52;100.00;100190.84;6067828;23;20019;-73
2023/03/23 06:11:55;;;;;;;6.75;2.03;;;;;;;10.47;100.00;100172.09;6047524;23;20450;-73
2023/03/23 06:14:32;;;;;;;7.07;2.30;;;;;;;10.45;100.00;100183.19;6067581;23;20034;-74
2023/03/23 06:16:58;;;;;;;8.07;2.20;;;;;;;10.40;100.00;100183.09;6019573;23;20024;-73
2023/03/23 06:19:26;;;;;;;9.55;2.13;;;;;;;10.34;100.00;100186.38;6075460;23;20387;-74
2023/03/23 06:22:06;;;;;;;6.95;2.25;;;;;;;10.31;100.00;100195.25;6110742;23;20077;-74
2023/03/23 06:24:44;;;;;;;8.32;2.00;;;;;;;10.29;100.00;100197.63;6134895;23;20531;-74
2023/03/23 06:27:13;;;;;;;5.72;1.98;;;;;;;10.27;100.00;100191.28;6132001;23;20017;-74
2023/03/23 06:29:41;;;;;;;4.55;2.10;;;;;;;10.25;100.00;100191.00;6108441;23;20015;-74
2023/03/23 06:32:11;;;;;;;9.63;2.17;;;;;;;10.23;100.00;100211.97;6108272;23;20029;-74
2023/03/23 06:34:37;;;;;;;9.45;2.38;;;;;;;10.20;100.00;100192.34;6108288;23;20443;-74
2023/03/23 06:37:36;;;;;;;5.45;2.13;;;;;;;10.21;100.00;100215.09;6140343;23;20026;-74
2023/03/23 06:40:13;;;;;;;8.80;2.30;;;;;;;10.20;100.00;100215.53;6110707;23;20022;-74
2023/03/23 06:42:42;;;;;;;7.95;2.80;;;;;;;10.20;100.00;100213.63;6109688;23;20022;-74
2023/03/23 06:45:31;;;;;;;11.40;3.15;;;;;;;10.21;100.00;100219.69;6039496;23;20123;-74
2023/03/23 06:48:23;;;;;;;11.52;2.13;;;;;;;10.19;100.00;100212.16;6006731;23;20028;-75
2023/03/23 06:50:49;;;;;;;6.68;2.13;;;;;;;10.21;100.00;100228.38;6040039;23;20090;-74
2023/03/23 06:53:16;;;;;;;8.57;2.47;;;;;;;10.21;100.00;100223.06;6015976;23;20023;-74
2023/03/23 06:55:44;;;;;;;6.50;2.20;;;;;;;10.22;100.00;100221.16;6039728;23;20023;-74
2023/03/23 06:58:10;;;;;;;6.65;2.00;;;;;;;10.20;100.00;100226.19;6016217;23;20019;-74
2023/03/23 07:00:36;;;;;;;3.28;2.10;;;;;;;10.19;100.00;100228.09;6016709;23;20057;-74
2023/03/23 07:03:03;;;;;;;9.93;2.30;;;;;;;10.16;100.00;100230.88;6015544;23;20091;-74
2023/03/23 07:05:30;;;;;;;6.32;2.17;;;;;;;10.17;100.00;100230.44;6016031;23;20081;-74
2023/03/23 07:07:55;;;;;;;8.45;2.33;;;;;;;10.16;100.00;100233.56;6016343;23;20057;-74
2023/03/23 07:10:34;;;;;;;6.93;2.33;;;;;;;10.15;100.00;100221.44;6016551;23;20028;-75
2023/03/23 07:13:01;;;;;;;7.32;2.45;;;;;;;10.15;100.00;100224.84;6015824;23;20024;-74
2023/03/23 07:15:32;;;;;;;7.10;2.22;;;;;;;10.14;100.00;100218.03;6015766;23;20498;-74
2023/03/23 07:17:57;;;;;;;6.95;2.15;;;;;;;10.15;100.00;100214.19;6039420;23;20024;-74
2023/03/23 07:20:38;;;;;;;8.27;2.08;;;;;;;10.15;100.00;100237.41;6040422;23;20035;-73
2023/03/23 07:23:07;;;;;;;11.25;2.47;;;;;;;10.15;100.00;100246.09;6084400;23;20026;-74
2023/03/23 07:25:42;;;;;;;6.53;2.20;;;;;;;10.15;100.00;100232.06;6110973;23;20029;-75
2023/03/23 07:28:13;;;;;;;8.75;2.75;;;;;;;10.13;100.00;100232.53;6109693;23;20427;-76
2023/03/23 07:30:39;;;;;;;12.85;2.95;;;;;;;10.16;100.00;100236.94;6109052;23;20018;-75
2023/03/23 07:33:06;;;;;;;4.97;1.90;;;;;;;10.24;100.00;100237.41;6106956;23;20021;-76
2023/03/23 07:35:32;;;;;;;6.38;2.25;;;;;;;10.28;100.00;100249.34;6131093;23;20511;-77
2023/03/23 07:38:05;;;;;;;5.60;2.30;;;;;;;10.38;100.00;100254.66;6131885;23;20045;-76
2023/03/23 07:40:34;;;;;;;10.50;2.67;;;;;;;10.42;100.00;100255.94;6106857;23;20361;-75
2023/03/23 07:43:12;;;;;;;4.75;2.10;;;;;;;10.44;100.00;100252.84;6133271;23;20443;-75
2023/03/23 07:46:13;;;;;;;5.55;2.00;;;;;;;10.42;100.00;100255.94;6140288;23;20025;-75
2023/03/23 07:48:46;;;;;;;11.23;2.10;;;;;;;10.46;100.00;100266.44;6133390;23;20448;-77
2023/03/23 07:51:13;;;;;;;7.03;1.95;;;;;;;10.53;100.00;100263.44;6109258;23;20065;-78
2023/03/23 07:53:39;;;;;;;5.97;1.80;;;;;;;10.60;100.00;100268.44;6109428;23;20074;-76
2023/03/23 07:56:19;;;;;;;6.20;2.25;;;;;;;10.64;100.00;100261.03;6111484;23;20057;-76
2023/03/23 07:59:06;;;;;;;7.57;2.17;;;;;;;10.62;100.00;100264.16;6113881;23;20100;-76
2023/03/23 08:01:35;;;;;;;10.38;1.98;;;;;;;10.57;100.00;100272.00;6109664;23;20022;-77
2023/03/23 08:04:19;;;;;;;3.53;2.20;;;;;;;10.61;100.00;100264.59;6137904;23;20428;-75
2023/03/23 08:07:07;;;;;;;9.85;2.50;;;;;;;10.62;100.00;100271.41;6138553;23;20060;-76
2023/03/23 08:09:48;;;;;;;6.78;2.00;;;;;;;10.62;100.00;100268.75;6112630;23;20416;-76
2023/03/23 08:12:32;;;;;;;7.43;2.40;;;;;;;10.60;100.00;100269.19;6137769;23;20021;-77
2023/03/23 08:15:26;;;;;;;4.82;2.60;;;;;;;10.67;100.00;100284.84;6113966;23;20524;-76
2023/03/23 08:18:07;;;;;;;8.20;2.47;;;;;;;10.69;100.00;100289.72;6112708;23;20105;-75
2023/03/23 08:20:53;;;;;;;4.90;2.08;;;;;;;10.68;100.00;100277.59;6138339;23;20409;-76
2023/03/23 08:23:47;;;;;;;5.55;2.03;;;;;;;10.68;100.00;100274.94;6133786;23;20022;-76
2023/03/23 08:26:24;;;;;;;6.25;2.10;;;;;;;10.70;100.00;100275.22;6111312;23;20025;-75
2023/03/23 08:29:09;;;;;;;8.30;2.38;;;;;;;10.80;100.00;100273.97;6133199;23;20133;-77
2023/03/23 08:31:38;;;;;;;6.88;2.13;;;;;;;10.90;100.00;100282.66;6134846;23;20026;-76
2023/03/23 08:34:21;;;;;;;7.32;2.40;;;;;;;10.98;100.00;100284.53;6133249;23;20049;-77
2023/03/23 08:37:04;;;;;;;4.50;2.25;;;;;;;11.17;100.00;100290.50;6113040;23;20018;-76
2023/03/23 08:39:53;;;;;;;4.32;1.73;;;;;;;11.31;100.00;100292.47;6138047;23;20033;-75
2023/03/23 08:42:25;;;;;;;4.05;2.15;;;;;;;11.41;99.82;100289.75;6134506;23;20049;-76
2023/03/23 08:45:12;;;;;;;6.78;2.35;;;;;;;11.52;100.00;100282.69;6112842;23;20507;-75
2023/03/23 08:47:56;;;;;;;5.43;2.60;;;;;;;11.59;98.95;100298.34;6133901;23;20489;-75
2023/03/23 08:50:40;;;;;;;8.73;2.50;;;;;;;11.51;98.84;100294.56;6133770;23;20081;-76
2023/03/23 08:53:20;;;;;;;4.47;2.10;;;;;;;11.44;98.57;100302.91;6111501;23;20029;-75
2023/03/23 08:55:46;;;;;;;6.55;2.20;;;;;;;11.40;99.14;100293.59;6133738;23;20049;-75
2023/03/23 08:58:31;;;;;;;5.18;1.73;;;;;;;11.54;99.05;100298.97;6137057;23;20097;-76
2023/03/23 09:01:08;;;;;;;5.03;2.10;;;;;;;11.63;98.16;100309.53;6133616;23;20032;-75
2023/03/23 09:03:42;;;;;;;4.65;2.13;;;;;;;11.74;97.59;100317.03;6135282;23;20101;-75
2023/03/23 09:06:27;;;;;;;4.22;2.00;;;;;;;11.77;96.35;100305.47;6137260;23;20109;-73
2023/03/23 09:08:55;;;;;;;9.25;2.10;;;;;;;11.84;96.09;100321.13;6158325;23;20018;-73
2023/03/23 09:11:20;;;;;;;9.07;2.15;;;;;;;11.99;95.48;100323.81;6132969;23;20101;-73
2023/03/23 09:13:46;;;;;;;7.65;2.17;;;;;;;12.09;94.29;100324.44;6132679;23;20460;-74
2023/03/23 09:16:12;;;;;;;6.80;2.40;;;;;;;12.09;93.96;100322.50;6157788;23;20049;-77
2023/03/23 09:18:38;;;;;;;6.78;2.30;;;;;;;12.31;95.17;100317.56;6133680;23;20087;-77
2023/03/23 09:21:04;;;;;;;7.60;2.00;;;;;;;12.54;93.77;100310.63;6133375;23;20397;-76
2023/03/23 09:23:31;;;;;;;9.20;2.08;;;;;;;12.59;92.56;100306.56;6132552;23;20481;-74
2023/03/23 09:25:56;;;;;;;5.47;2.45;;;;;;;12.76;91.77;100320.91;6133512;23;20014;-73
2023/03/23 09:28:22;;;;;;;6.50;2.22;;;;;;;12.59;89.02;100325.25;6132189;23;20022;-73
2023/03/23 09:30:48;;;;;;;7.88;2.75;;;;;;;12.46;89.98;100322.13;6159151;23;20022;-73
2023/03/23 09:33:14;;;;;;;9.90;2.20;;;;;;;12.46;88.58;100322.88;6158315;23;20105;-74
2023/03/23 09:35:41;;;;;;;8.65;2.65;;;;;;;12.48;89.16;100320.47;6158179;23;20018;-74
2023/03/23 09:38:09;;;;;;;8.70;2.22;;;;;;;12.38;88.76;100332.47;6158329;23;20025;-75
2023/03/23 09:41:00;;;;;;;5.80;2.15;;;;;;;12.42;89.69;100334.94;6133480;23;20110;-75
2023/03/23 09:43:45;;;;;;;8.73;2.25;;;;;;;12.65;89.69;100334.09;6156201;23;20608;-74
2023/03/23 09:46:28;;;;;;;4.10;2.00;;;;;;;12.84;87.37;100343.34;6155730;23;20022;-74
2023/03/23 09:49:10;;;;;;;8.13;2.50;;;;;;;12.85;85.46;100341.41;6126317;23;20019;-72
2023/03/23 09:51:54;;;;;;;6.43;1.75;;;;;;;12.66;84.68;100338.25;6126480;23;20023;-74
2023/03/23 09:54:27;;;;;;;11.43;2.42;;;;;;;12.64;83.11;100333.34;6126229;23;20015;-73
2023/03/23 09:56:55;;;;;;;8.60;2.17;;;;;;;12.75;82.63;100335.47;6127718;23;20426;-74
2023/03/23 09:59:52;;;;;;;12.30;2.78;;;;;;;12.74;82.78;100344.69;6128142;23;20025;-75
2023/03/23 10:02:30;;;;;;;5.43;2.35;;;;;;;12.82;83.90;100351.09;6103767;23;20019;-73
2023/03/23 10:05:13;;;;;;;6.80;2.28;;;;;;;12.98;83.73;100365.91;6128717;23;20018;-75
2023/03/23 10:07:39;;;;;;;9.90;2.33;;;;;;;12.95;82.18;100367.56;6128112;23;20025;-75
2023/03/23 10:10:06;;;;;;;4.68;1.60;;;;;;;13.21;81.77;100370.38;6128097;23;20090;-75
2023/03/23 10:12:42;;;;;;;5.95;2.03;;;;;;;13.15;80.50;100369.53;6129844;23;20023;-75
2023/03/23 10:15:21;;;;;;;15.52;2.17;;;;;;;13.13;81.23;100363.94;6104228;23;20081;-75
2023/03/23 10:18:13;;;;;;;6.60;1.80;;;;;;;12.95;79.96;100378.25;6128538;23;20438;-75
2023/03/23 10:20:47;;;;;;;7.43;1.83;;;;;;;12.75;79.64;100374.78;6128605;23;20459;-75
2023/03/23 10:23:18;;;;;;;7.00;1.98;;;;;;;12.73;80.05;100383.28;6129657;23;20025;-75
2023/03/23 10:26:21;;;;;;;8.07;2.13;;;;;;;12.80;80.32;100369.50;6127794;23;20014;-75
2023/03/23 10:28:55;;;;;;;7.30;2.08;;;;;;;13.00;79.97;100377.59;6128522;23;20015;-75
2023/03/23 10:31:32;;;;;;;9.10;2.50;;;;;;;13.06;79.16;100382.28;6128297;23;20968;-75
2023/03/23 10:34:05;;;;;;;6.88;1.90;;;;;;;12.98;77.96;100376.59;6128554;23;20022;-75
2023/03/23 10:37:12;;;;;;;6.90;2.22;;;;;;;12.80;78.67;100388.22;6127693;23;20046;-76
2023/03/23 10:39:46;;;;;;;8.73;2.10;;;;;;;12.70;77.64;100389.53;6091623;23;20027;-77
2023/03/23 10:42:11;;;;;;;12.98;2.40;;;;;;;12.70;76.78;100378.84;6127713;23;20419;-77
2023/03/23 10:44:37;;;;;;;9.75;2.50;;;;;;;12.67;76.15;100375.16;6128406;23;20022;-78
2023/03/23 10:47:08;;;;;;;6.38;2.30;;;;;;;12.58;76.15;100385.19;6129224;23;20086;-77
2023/03/23 10:50:04;;;;;;;10.55;2.50;;;;;;;12.48;77.43;100391.81;6159372;23;20019;-77
2023/03/23 10:52:37;;;;;;;9.68;2.20;;;;;;;12.47;75.81;100391.09;6132645;23;20018;-77
2023/03/23 10:55:09;;;;;;;45.10;22.27;;;;;;;12.56;77.12;100393.66;6130354;23;20022;-75
2023/03/23 10:57:37;;;;;;;9.40;3.20;;;;;;;12.76;77.18;100384.28;6132675;23;20018;-76
2023/03/23 11:00:17;;;;;;;8.48;2.33;;;;;;;13.10;76.09;100380.91;6131948;23;20032;-76
2023/03/23 11:02:47;;;;;;;8.55;2.70;;;;;;;13.48;76.00;100387.97;6132349;23;20089;-76
2023/03/23 11:05:21;;;;;;;10.65;2.67;;;;;;;13.56;72.90;100391.00;6132356;23;20022;-76
2023/03/23 11:07:53;;;;;;;9.65;2.70;;;;;;;13.43;71.71;100382.56;6107762;23;20021;-76
2023/03/23 11:10:26;;;;;;;11.48;2.28;;;;;;;13.59;72.54;100395.41;6132293;23;20489;-76
2023/03/23 11:12:56;;;;;;;10.75;1.88;;;;;;;13.66;69.99;100411.03;6133049;23;20424;-77
2023/03/23 11:15:30;;;;;;;11.68;2.13;;;;;;;13.48;71.02;100390.66;6108037;23;20049;-76
2023/03/23 11:17:58;;;;;;;10.65;2.35;;;;;;;13.51;71.22;100400.41;6109148;23;20021;-77
2023/03/23 11:20:26;;;;;;;5.82;2.25;;;;;;;13.65;70.31;100404.94;6109134;23;20357;-76
2023/03/23 11:22:52;;;;;;;7.55;2.25;;;;;;;14.07;69.22;100390.34;6132180;23;20022;-77
2023/03/23 11:25:18;;;;;;;10.60;2.10;;;;;;;14.32;67.61;100384.25;6133006;23;20022;-78
2023/03/23 11:27:44;;;;;;;10.65;2.70;;;;;;;14.56;67.55;100381.31;6134773;23;20102;-76
2023/03/23 11:30:21;;;;;;;6.93;2.00;;;;;;;14.93;67.44;100384.03;6133650;23;20417;-76
2023/03/23 11:32:47;;;;;;;6.18;1.77;;;;;;;15.12;65.12;100384.38;6135174;23;20021;-76
2023/03/23 11:35:31;;;;;;;8.40;2.03;;;;;;;15.11;66.21;100380.25;6158580;23;20021;-75
2023/03/23 11:37:58;;;;;;;8.00;2.20;;;;;;;15.00;64.78;100380.91;6159936;23;20322;-77
2023/03/23 11:40:31;;;;;;;8.45;2.00;;;;;;;15.15;65.84;100393.44;6133823;23;20463;-78
2023/03/23 11:43:00;;;;;;;6.22;1.88;;;;;;;15.13;65.41;100377.81;6134236;23;20433;-76
2023/03/23 11:45:37;;;;;;;5.30;2.05;;;;;;;14.99;66.64;100387.47;6133975;23;20018;-77
2023/03/23 11:48:20;;;;;;;10.55;2.60;;;;;;;14.97;66.41;100378.44;6133817;23;20030;-76
2023/03/23 11:50:52;;;;;;;7.80;1.95;;;;;;;14.86;66.25;100386.41;6159118;23;20093;-76